sensor_id;sensor_type;location;lat;lon;timestamp;pressure;altitude;pressure_sealevel;temperature;humidity
1371;BME280;14306;49.942;11.570;2024-03-02T00:01:09;96353.25;;;5.10;100.00
1371;BME280;14306;49.942;11.570;2024-03-02T00:02:44;96364.91;;;5.19;100.00
1371;BME280;14306;49.942;11.570;2024-03-02T00:04:18;96371.06;;;5.19;100.00
1371;BME280;14306;49.942;11.570;2024-03-02T00:05:53;96370.06;;;5.15;100.00
1371;BME280;14306;49.942;11.570;2024-03-02T00:07:26;96360.31;;;5.06;100.00
1371;BME280;14306;49.942;11.570;2024-03-02T00:09:00;96357.81;;;5.09;100.00
1371;BME280;14306;49.942;11.570;2024-03-02T00:10:37;96351.66;;;5.09;100.00
1371;BME280;14306;49.942;11.570;2024-03-02T00:12:15;96350.47;;;5.15;100.00
1371;BME280;14306;49.942;11.570;2024-03-02T00:13:52;96364.72;;;5.29;100.00
1371;BME280;14306;49.942;11.570;2024-03-02T00:15:45;96363.22;;;5.23;100.00
1371;BME280;14306;49.942;11.570;2024-03-02T00:17:25;96366.59;;;5.28;100.00
1371;BME280;14306;49.942;11.570;2024-03-02T00:19:01;96355.28;;;5.31;100.00
1371;BME280;14306;49.942;11.570;2024-03-02T00:20:35;96355.69;;;5.38;100.00
1371;BME280;14306;49.942;11.570;2024-03-02T00:22:09;96358.09;;;5.40;100.00
1371;BME280;14306;49.942;11.570;2024-03-02T00:23:43;96357.47;;;5.43;100.00
1371;BME280;14306;49.942;11.570;2024-03-02T00:25:17;96355.47;;;5.48;100.00
1371;BME280;14306;49.942;11.570;2024-03-02T00:26:51;96347.03;;;5.41;100.00
1371;BME280;14306;49.942;11.570;2024-03-02T00:28:26;96346.72;;;5.56;100.00
1371;BME280;14306;49.942;11.570;2024-03-02T00:30:06;96347.25;;;5.58;100.00
1371;BME280;14306;49.942;11.570;2024-03-02T00:31:58;96341.38;;;5.56;100.00
1371;BME280;14306;49.942;11.570;2024-03-02T00:33:33;96354.72;;;5.61;100.00
1371;BME280;14306;49.942;11.570;2024-03-02T00:35:09;96358.28;;;5.70;100.00
1371;BME280;14306;49.942;11.570;2024-03-02T00:36:43;96342.28;;;5.65;100.00
1371;BME280;14306;49.942;11.570;2024-03-02T00:38:17;96344.38;;;5.68;100.00
1371;BME280;14306;49.942;11.570;2024-03-02T00:39:51;96331.53;;;5.65;100.00
1371;BME280;14306;49.942;11.570;2024-03-02T00:41:27;96345.84;;;5.74;100.00
1371;BME280;14306;49.942;11.570;2024-03-02T00:43:03;96351.22;;;5.74;100.00
1371;BME280;14306;49.942;11.570;2024-03-02T00:44:36;96352.03;;;5.88;100.00
1371;BME280;14306;49.942;11.570;2024-03-02T00:46:16;96344.44;;;5.77;100.00
1371;BME280;14306;49.942;11.570;2024-03-02T00:47:50;96353.59;;;5.76;100.00
1371;BME280;14306;49.942;11.570;2024-03-02T00:49:24;96354.03;;;5.83;100.00
1371;BME280;14306;49.942;11.570;2024-03-02T00:50:59;96346.75;;;5.83;100.00
1371;BME280;14306;49.942;11.570;2024-03-02T00:52:33;96353.44;;;5.86;100.00
1371;BME280;14306;49.942;11.570;2024-03-02T00:54:08;96352.75;;;5.94;100.00
1371;BME280;14306;49.942;11.570;2024-03-02T00:55:42;96351.34;;;5.83;100.00
1371;BME280;14306;49.942;11.570;2024-03-02T00:57:20;96353.13;;;5.87;100.00
1371;BME280;14306;49.942;11.570;2024-03-02T00:58:55;96316.19;;;5.66;100.00
1371;BME280;14306;49.942;11.570;2024-03-02T01:00:29;96356.50;;;5.93;100.00
1371;BME280;14306;49.942;11.570;2024-03-02T01:02:04;96358.13;;;5.94;100.00
1371;BME280;14306;49.942;11.570;2024-03-02T01:03:38;96355.31;;;5.99;100.00
1371;BME280;14306;49.942;11.570;2024-03-02T01:05:11;96373.22;;;6.03;100.00
1371;BME280;14306;49.942;11.570;2024-03-02T01:06:46;96356.72;;;5.96;100.00
1371;BME280;14306;49.942;11.570;2024-03-02T01:08:20;96367.56;;;6.05;100.00
1371;BME280;14306;49.942;11.570;2024-03-02T01:09:53;96354.72;;;6.02;100.00
1371;BME280;14306;49.942;11.570;2024-03-02T01:11:27;96372.72;;;6.01;100.00
1371;BME280;14306;49.942;11.570;2024-03-02T01:13:03;96364.19;;;5.99;100.00
1371;BME280;14306;49.942;11.570;2024-03-02T01:14:36;96373.72;;;6.05;100.00
1371;BME280;14306;49.942;11.570;2024-03-02T01:16:10;96354.13;;;6.05;100.00
1371;BME280;14306;49.942;11.570;2024-03-02T01:17:44;96359.16;;;6.06;100.00
1371;BME280;14306;49.942;11.570;2024-03-02T01:19:19;96356.47;;;6.06;100.00
1371;BME280;14306;49.942;11.570;2024-03-02T01:20:54;96360.09;;;6.02;100.00
1371;BME280;14306;49.942;11.570;2024-03-02T01:22:28;96357.28;;;6.07;100.00
1371;BME280;14306;49.942;11.570;2024-03-02T01:24:03;96355.72;;;6.06;100.00
1371;BME280;14306;49.942;11.570;2024-03-02T01:25:37;96347.81;;;6.09;100.00
1371;BME280;14306;49.942;11.570;2024-03-02T01:27:10;96331.25;;;5.94;100.00
1371;BME280;14306;49.942;11.570;2024-03-02T01:28:44;96365.16;;;6.03;100.00
1371;BME280;14306;49.942;11.570;2024-03-02T01:30:19;96350.22;;;6.11;100.00
1371;BME280;14306;49.942;11.570;2024-03-02T01:31:52;96352.91;;;6.11;100.00
1371;BME280;14306;49.942;11.570;2024-03-02T01:33:27;96352.91;;;6.11;100.00
1371;BME280;14306;49.942;11.570;2024-03-02T01:35:01;96348.75;;;6.05;100.00
1371;BME280;14306;49.942;11.570;2024-03-02T01:36:34;96360.56;;;6.04;100.00
1371;BME280;14306;49.942;11.570;2024-03-02T01:38:08;96351.91;;;6.07;100.00
1371;BME280;14306;49.942;11.570;2024-03-02T01:39:41;96357.50;;;6.10;100.00
1371;BME280;14306;49.942;11.570;2024-03-02T01:41:16;96347.44;;;6.02;100.00
1371;BME280;14306;49.942;11.570;2024-03-02T01:42:49;96359.50;;;6.05;100.00
1371;BME280;14306;49.942;11.570;2024-03-02T01:44:23;96356.88;;;6.13;100.00
1371;BME280;14306;49.942;11.570;2024-03-02T01:45:57;96352.03;;;6.02;100.00
1371;BME280;14306;49.942;11.570;2024-03-02T01:47:31;96344.44;;;6.04;100.00
1371;BME280;14306;49.942;11.570;2024-03-02T01:49:07;96363.78;;;6.06;100.00
1371;BME280;14306;49.942;11.570;2024-03-02T01:50:41;96352.50;;;6.04;100.00
1371;BME280;14306;49.942;11.570;2024-03-02T01:52:14;96360.56;;;6.17;100.00
1371;BME280;14306;49.942;11.570;2024-03-02T01:53:48;96359.47;;;6.18;100.00
1371;BME280;14306;49.942;11.570;2024-03-02T01:55:23;96360.06;;;6.15;100.00
1371;BME280;14306;49.942;11.570;2024-03-02T01:56:56;96329.56;;;5.98;100.00
1371;BME280;14306;49.942;11.570;2024-03-02T01:58:30;96365.16;;;6.17;100.00
1371;BME280;14306;49.942;11.570;2024-03-02T02:00:03;96349.44;;;6.10;100.00
1371;BME280;14306;49.942;11.570;2024-03-02T02:01:38;96357.09;;;6.17;100.00
1371;BME280;14306;49.942;11.570;2024-03-02T02:03:11;96356.16;;;6.21;100.00
1371;BME280;14306;49.942;11.570;2024-03-02T02:04:47;96359.75;;;6.30;100.00
1371;BME280;14306;49.942;11.570;2024-03-02T02:06:20;96361.06;;;6.19;100.00
1371;BME280;14306;49.942;11.570;2024-03-02T02:07:55;96362.63;;;6.34;100.00
1371;BME280;14306;49.942;11.570;2024-03-02T02:09:28;96361.22;;;6.36;100.00
1371;BME280;14306;49.942;11.570;2024-03-02T02:11:02;96371.56;;;6.29;100.00
1371;BME280;14306;49.942;11.570;2024-03-02T02:12:36;96363.31;;;6.26;100.00
1371;BME280;14306;49.942;11.570;2024-03-02T02:14:10;96360.72;;;6.34;100.00
1371;BME280;14306;49.942;11.570;2024-03-02T02:15:45;96337.75;;;6.15;100.00
1371;BME280;14306;49.942;11.570;2024-03-02T02:17:19;96352.19;;;6.19;100.00
1371;BME280;14306;49.942;11.570;2024-03-02T02:18:52;96371.13;;;6.14;100.00
1371;BME280;14306;49.942;11.570;2024-03-02T02:20:28;96360.50;;;6.09;100.00
1371;BME280;14306;49.942;11.570;2024-03-02T02:22:04;96356.28;;;6.16;100.00
1371;BME280;14306;49.942;11.570;2024-03-02T02:23:36;96349.41;;;6.24;100.00
1371;BME280;14306;49.942;11.570;2024-03-02T02:25:10;96353.81;;;6.20;100.00
1371;BME280;14306;49.942;11.570;2024-03-02T02:26:43;96352.50;;;6.17;100.00
1371;BME280;14306;49.942;11.570;2024-03-02T02:28:18;96363.25;;;6.17;100.00
1371;BME280;14306;49.942;11.570;2024-03-02T02:29:51;96352.31;;;6.14;100.00
1371;BME280;14306;49.942;11.570;2024-03-02T02:31:25;96334.31;;;6.01;100.00
1371;BME280;14306;49.942;11.570;2024-03-02T02:32:59;96347.75;;;6.01;100.00
1371;BME280;14306;49.942;11.570;2024-03-02T02:34:34;96348.13;;;6.08;100.00
1371;BME280;14306;49.942;11.570;2024-03-02T02:36:07;96377.00;;;6.02;100.00
1371;BME280;14306;49.942;11.570;2024-03-02T02:37:44;96354.41;;;6.03;100.00
1371;BME280;14306;49.942;11.570;2024-03-02T02:39:20;96356.41;;;5.98;100.00
1371;BME280;14306;49.942;11.570;2024-03-02T02:40:55;96349.53;;;6.05;100.00
1371;BME280;14306;49.942;11.570;2024-03-02T02:42:28;96345.72;;;6.06;100.00
1371;BME280;14306;49.942;11.570;2024-03-02T02:44:02;96335.41;;;6.00;100.00
1371;BME280;14306;49.942;11.570;2024-03-02T02:45:35;96338.69;;;6.10;100.00
1371;BME280;14306;49.942;11.570;2024-03-02T02:47:09;96332.94;;;6.03;100.00
1371;BME280;14306;49.942;11.570;2024-03-02T02:48:42;96327.94;;;5.97;100.00
1371;BME280;14306;49.942;11.570;2024-03-02T02:50:17;96339.75;;;6.09;100.00
1371;BME280;14306;49.942;11.570;2024-03-02T02:51:49;96331.53;;;6.06;100.00
1371;BME280;14306;49.942;11.570;2024-03-02T02:53:25;96349.13;;;6.12;100.00
1371;BME280;14306;49.942;11.570;2024-03-02T02:54:59;96342.75;;;6.08;100.00
1371;BME280;14306;49.942;11.570;2024-03-02T02:56:32;96337.00;;;6.01;100.00
1371;BME280;14306;49.942;11.570;2024-03-02T02:58:06;96342.97;;;6.11;100.00
1371;BME280;14306;49.942;11.570;2024-03-02T02:59:39;96328.75;;;5.97;100.00
1371;BME280;14306;49.942;11.570;2024-03-02T03:01:14;96331.63;;;6.01;100.00
1371;BME280;14306;49.942;11.570;2024-03-02T03:02:48;96333.44;;;5.92;100.00
1371;BME280;14306;49.942;11.570;2024-03-02T03:04:23;96330.84;;;6.00;100.00
1371;BME280;14306;49.942;11.570;2024-03-02T03:05:56;96343.38;;;6.05;100.00
1371;BME280;14306;49.942;11.570;2024-03-02T03:07:30;96332.63;;;6.05;100.00
1371;BME280;14306;49.942;11.570;2024-03-02T03:09:05;96314.72;;;5.87;100.00
1371;BME280;14306;49.942;11.570;2024-03-02T03:10:39;96324.66;;;6.00;100.00
1371;BME280;14306;49.942;11.570;2024-03-02T03:12:13;96325.84;;;6.07;100.00
1371;BME280;14306;49.942;11.570;2024-03-02T03:13:47;96311.44;;;5.90;100.00
1371;BME280;14306;49.942;11.570;2024-03-02T03:15:20;96315.91;;;5.94;100.00
1371;BME280;14306;49.942;11.570;2024-03-02T03:16:54;96319.88;;;5.97;100.00
1371;BME280;14306;49.942;11.570;2024-03-02T03:18:28;96328.84;;;5.92;100.00
1371;BME280;14306;49.942;11.570;2024-03-02T03:20:02;96324.47;;;5.96;100.00
1371;BME280;14306;49.942;11.570;2024-03-02T03:21:36;96317.00;;;5.93;100.00
1371;BME280;14306;49.942;11.570;2024-03-02T03:23:11;96325.94;;;6.02;100.00
1371;BME280;14306;49.942;11.570;2024-03-02T03:24:49;96300.78;;;5.98;100.00
1371;BME280;14306;49.942;11.570;2024-03-02T03:26:23;96322.91;;;6.17;100.00
1371;BME280;14306;49.942;11.570;2024-03-02T03:27:57;96317.84;;;6.16;100.00
1371;BME280;14306;49.942;11.570;2024-03-02T03:29:30;96317.47;;;6.22;100.00
1371;BME280;14306;49.942;11.570;2024-03-02T03:31:05;96296.16;;;6.12;100.00
1371;BME280;14306;49.942;11.570;2024-03-02T03:32:39;96320.19;;;6.09;100.00
1371;BME280;14306;49.942;11.570;2024-03-02T03:34:13;96322.78;;;6.00;100.00
1371;BME280;14306;49.942;11.570;2024-03-02T03:35:49;96310.50;;;6.08;100.00
1371;BME280;14306;49.942;11.570;2024-03-02T03:37:22;96311.88;;;6.19;100.00
1371;BME280;14306;49.942;11.570;2024-03-02T03:38:56;96302.59;;;6.25;100.00
1371;BME280;14306;49.942;11.570;2024-03-02T03:40:31;96295.28;;;6.17;100.00
1371;BME280;14306;49.942;11.570;2024-03-02T03:42:06;96316.78;;;6.17;100.00
1371;BME280;14306;49.942;11.570;2024-03-02T03:43:39;96308.38;;;6.32;100.00
1371;BME280;14306;49.942;11.570;2024-03-02T03:45:13;96314.94;;;6.26;100.00
1371;BME280;14306;49.942;11.570;2024-03-02T03:46:46;96310.38;;;6.26;100.00
1371;BME280;14306;49.942;11.570;2024-03-02T03:48:21;96316.56;;;6.13;100.00
1371;BME280;14306;49.942;11.570;2024-03-02T03:49:54;96321.16;;;6.13;100.00
1371;BME280;14306;49.942;11.570;2024-03-02T03:51:28;96319.19;;;6.05;100.00
1371;BME280;14306;49.942;11.570;2024-03-02T03:53:01;96319.66;;;6.07;100.00
1371;BME280;14306;49.942;11.570;2024-03-02T03:54:35;96319.78;;;6.02;100.00
1371;BME280;14306;49.942;11.570;2024-03-02T03:56:11;96320.19;;;6.09;100.00
1371;BME280;14306;49.942;11.570;2024-03-02T03:57:46;96312.00;;;6.14;100.00
1371;BME280;14306;49.942;11.570;2024-03-02T03:59:20;96310.97;;;6.23;100.00
1371;BME280;14306;49.942;11.570;2024-03-02T04:00:53;96303.22;;;6.22;100.00
1371;BME280;14306;49.942;11.570;2024-03-02T04:02:27;96314.25;;;6.20;100.00
1371;BME280;14306;49.942;11.570;2024-03-02T04:04:00;96314.13;;;6.25;100.00
1371;BME280;14306;49.942;11.570;2024-03-02T04:05:36;96318.06;;;6.19;100.00
1371;BME280;14306;49.942;11.570;2024-03-02T04:07:11;96314.84;;;6.17;100.00
1371;BME280;14306;49.942;11.570;2024-03-02T04:08:44;96312.06;;;6.22;100.00
1371;BME280;14306;49.942;11.570;2024-03-02T04:10:19;96315.28;;;6.11;100.00
1371;BME280;14306;49.942;11.570;2024-03-02T04:11:55;96311.31;;;6.08;100.00
1371;BME280;14306;49.942;11.570;2024-03-02T04:13:28;96318.25;;;6.09;100.00
1371;BME280;14306;49.942;11.570;2024-03-02T04:15:04;96319.63;;;6.20;100.00
1371;BME280;14306;49.942;11.570;2024-03-02T04:16:37;96317.47;;;6.22;100.00
1371;BME280;14306;49.942;11.570;2024-03-02T04:18:11;96308.75;;;6.25;100.00
1371;BME280;14306;49.942;11.570;2024-03-02T04:19:44;96313.56;;;6.15;100.00
1371;BME280;14306;49.942;11.570;2024-03-02T04:21:19;96310.25;;;6.31;100.00
1371;BME280;14306;49.942;11.570;2024-03-02T04:22:52;96317.72;;;6.34;100.00
1371;BME280;14306;49.942;11.570;2024-03-02T04:24:26;96315.13;;;6.29;100.00
1371;BME280;14306;49.942;11.570;2024-03-02T04:26:00;96329.28;;;6.21;100.00
1371;BME280;14306;49.942;11.570;2024-03-02T04:27:36;96322.03;;;6.22;100.00
1371;BME280;14306;49.942;11.570;2024-03-02T04:29:09;96326.13;;;6.19;100.00
1371;BME280;14306;49.942;11.570;2024-03-02T04:30:43;96325.22;;;6.24;100.00
1371;BME280;14306;49.942;11.570;2024-03-02T04:32:17;96319.94;;;6.19;100.00
1371;BME280;14306;49.942;11.570;2024-03-02T04:33:52;96320.94;;;6.09;100.00
1371;BME280;14306;49.942;11.570;2024-03-02T04:35:26;96311.91;;;6.05;100.00
1371;BME280;14306;49.942;11.570;2024-03-02T04:37:00;96321.91;;;6.27;100.00
1371;BME280;14306;49.942;11.570;2024-03-02T04:38:34;96295.16;;;6.22;100.00
1371;BME280;14306;49.942;11.570;2024-03-02T04:40:09;96313.06;;;6.26;100.00
1371;BME280;14306;49.942;11.570;2024-03-02T04:41:43;96323.44;;;6.19;100.00
1371;BME280;14306;49.942;11.570;2024-03-02T04:43:18;96323.72;;;6.18;100.00
1371;BME280;14306;49.942;11.570;2024-03-02T04:44:52;96325.81;;;6.21;100.00
1371;BME280;14306;49.942;11.570;2024-03-02T04:46:25;96319.75;;;6.15;100.00
1371;BME280;14306;49.942;11.570;2024-03-02T04:47:59;96317.75;;;6.21;100.00
1371;BME280;14306;49.942;11.570;2024-03-02T04:49:32;96317.63;;;6.26;100.00
1371;BME280;14306;49.942;11.570;2024-03-02T04:51:06;96315.84;;;6.21;100.00
1371;BME280;14306;49.942;11.570;2024-03-02T04:52:40;96307.19;;;6.24;100.00
1371;BME280;14306;49.942;11.570;2024-03-02T04:54:14;96306.06;;;6.25;100.00
1371;BME280;14306;49.942;11.570;2024-03-02T04:55:47;96316.97;;;6.07;100.00
1371;BME280;14306;49.942;11.570;2024-03-02T04:57:39;96327.22;;;6.18;100.00
1371;BME280;14306;49.942;11.570;2024-03-02T04:59:15;96306.91;;;6.12;100.00
1371;BME280;14306;49.942;11.570;2024-03-02T05:00:50;96322.53;;;6.24;100.00
1371;BME280;14306;49.942;11.570;2024-03-02T05:02:23;96308.47;;;6.27;100.00
1371;BME280;14306;49.942;11.570;2024-03-02T05:03:57;96310.97;;;6.23;100.00
1371;BME280;14306;49.942;11.570;2024-03-02T05:05:31;96312.84;;;6.23;100.00
1371;BME280;14306;49.942;11.570;2024-03-02T05:07:05;96319.38;;;6.08;100.00
1371;BME280;14306;49.942;11.570;2024-03-02T05:08:38;96310.63;;;6.03;100.00
1371;BME280;14306;49.942;11.570;2024-03-02T05:10:13;96315.16;;;6.16;100.00
1371;BME280;14306;49.942;11.570;2024-03-02T05:11:47;96321.47;;;6.11;100.00
1371;BME280;14306;49.942;11.570;2024-03-02T05:13:42;96316.47;;;6.18;100.00
1371;BME280;14306;49.942;11.570;2024-03-02T05:15:17;96317.75;;;6.21;100.00
1371;BME280;14306;49.942;11.570;2024-03-02T05:16:52;96320.91;;;6.23;100.00
1371;BME280;14306;49.942;11.570;2024-03-02T05:18:25;96306.22;;;6.07;100.00
1371;BME280;14306;49.942;11.570;2024-03-02T05:19:59;96312.72;;;6.06;100.00
1371;BME280;14306;49.942;11.570;2024-03-02T05:21:32;96308.13;;;6.06;100.00
1371;BME280;14306;49.942;11.570;2024-03-02T05:23:06;96312.91;;;6.09;100.00
1371;BME280;14306;49.942;11.570;2024-03-02T05:24:40;96315.78;;;6.13;100.00
1371;BME280;14306;49.942;11.570;2024-03-02T05:26:13;96303.94;;;6.14;100.00
1371;BME280;14306;49.942;11.570;2024-03-02T05:27:47;96298.44;;;6.19;100.00
1371;BME280;14306;49.942;11.570;2024-03-02T05:29:21;96312.81;;;6.14;100.00
1371;BME280;14306;49.942;11.570;2024-03-02T05:30:57;96303.53;;;6.07;100.00
1371;BME280;14306;49.942;11.570;2024-03-02T05:32:30;96311.91;;;6.05;100.00
1371;BME280;14306;49.942;11.570;2024-03-02T05:34:04;96315.28;;;6.11;100.00
1371;BME280;14306;49.942;11.570;2024-03-02T05:35:38;96313.19;;;6.08;100.00
1371;BME280;14306;49.942;11.570;2024-03-02T05:37:13;96317.50;;;6.09;100.00
1371;BME280;14306;49.942;11.570;2024-03-02T05:38:46;96315.19;;;6.02;100.00
1371;BME280;14306;49.942;11.570;2024-03-02T05:40:20;96313.00;;;6.04;100.00
1371;BME280;14306;49.942;11.570;2024-03-02T05:41:56;96294.81;;;5.88;100.00
1371;BME280;14306;49.942;11.570;2024-03-02T05:43:30;96324.66;;;6.00;100.00
1371;BME280;14306;49.942;11.570;2024-03-02T05:45:04;96303.75;;;5.97;100.00
1371;BME280;14306;49.942;11.570;2024-03-02T05:46:40;96316.59;;;6.00;100.00
1371;BME280;14306;49.942;11.570;2024-03-02T05:48:13;96307.63;;;6.04;100.00
1371;BME280;14306;49.942;11.570;2024-03-02T05:49:47;96316.81;;;6.03;100.00
1371;BME280;14306;49.942;11.570;2024-03-02T05:51:21;96321.66;;;6.01;100.00
1371;BME280;14306;49.942;11.570;2024-03-02T05:52:55;96321.97;;;6.00;100.00
1371;BME280;14306;49.942;11.570;2024-03-02T05:54:29;96319.50;;;6.03;100.00
1371;BME280;14306;49.942;11.570;2024-03-02T05:56:04;96323.06;;;5.99;100.00
1371;BME280;14306;49.942;11.570;2024-03-02T05:57:38;96328.63;;;6.02;100.00
1371;BME280;14306;49.942;11.570;2024-03-02T05:59:28;96317.09;;;6.02;100.00
1371;BME280;14306;49.942;11.570;2024-03-02T06:01:03;96317.19;;;5.97;100.00
1371;BME280;14306;49.942;11.570;2024-03-02T06:02:40;96316.19;;;5.93;100.00
1371;BME280;14306;49.942;11.570;2024-03-02T06:04:14;96317.31;;;5.92;100.00
1371;BME280;14306;49.942;11.570;2024-03-02T06:05:48;96317.81;;;5.94;100.00
1371;BME280;14306;49.942;11.570;2024-03-02T06:07:23;96313.44;;;5.98;100.00
1371;BME280;14306;49.942;11.570;2024-03-02T06:08:56;96322.47;;;6.02;100.00
1371;BME280;14306;49.942;11.570;2024-03-02T06:10:30;96316.59;;;6.00;100.00
1371;BME280;14306;49.942;11.570;2024-03-02T06:12:04;96326.94;;;6.06;100.00
1371;BME280;14306;49.942;11.570;2024-03-02T06:13:39;96319.19;;;6.05;100.00
1371;BME280;14306;49.942;11.570;2024-03-02T06:15:13;96326.53;;;6.13;100.00
1371;BME280;14306;49.942;11.570;2024-03-02T06:16:46;96327.31;;;6.13;100.00
1371;BME280;14306;49.942;11.570;2024-03-02T06:18:21;96327.69;;;6.20;100.00
1371;BME280;14306;49.942;11.570;2024-03-02T06:19:55;96331.38;;;6.24;100.00
1371;BME280;14306;49.942;11.570;2024-03-02T06:21:30;96339.53;;;6.33;100.00
1371;BME280;14306;49.942;11.570;2024-03-02T06:23:03;96331.75;;;6.31;100.00
1371;BME280;14306;49.942;11.570;2024-03-02T06:24:38;96323.88;;;6.35;100.00
1371;BME280;14306;49.942;11.570;2024-03-02T06:26:12;96323.69;;;6.31;100.00
1371;BME280;14306;49.942;11.570;2024-03-02T06:27:45;96325.19;;;6.37;100.00
1371;BME280;14306;49.942;11.570;2024-03-02T06:29:20;96317.63;;;6.26;100.00
1371;BME280;14306;49.942;11.570;2024-03-02T06:30:53;96338.28;;;6.39;100.00
1371;BME280;14306;49.942;11.570;2024-03-02T06:32:27;96324.53;;;6.40;100.00
1371;BME280;14306;49.942;11.570;2024-03-02T06:34:02;96329.63;;;6.42;100.00
1371;BME280;14306;49.942;11.570;2024-03-02T06:35:37;96334.56;;;6.48;100.00
1371;BME280;14306;49.942;11.570;2024-03-02T06:37:12;96322.78;;;6.58;100.00
1371;BME280;14306;49.942;11.570;2024-03-02T06:38:47;96337.03;;;6.58;100.00
1371;BME280;14306;49.942;11.570;2024-03-02T06:40:20;96327.81;;;6.51;100.00
1371;BME280;14306;49.942;11.570;2024-03-02T06:41:54;96340.53;;;6.59;100.00
1371;BME280;14306;49.942;11.570;2024-03-02T06:43:28;96332.41;;;6.72;100.00
1371;BME280;14306;49.942;11.570;2024-03-02T06:45:03;96334.97;;;6.77;100.00
1371;BME280;14306;49.942;11.570;2024-03-02T06:46:36;96323.78;;;6.84;100.00
1371;BME280;14306;49.942;11.570;2024-03-02T06:48:10;96337.34;;;6.79;100.00
1371;BME280;14306;49.942;11.570;2024-03-02T06:49:45;96332.22;;;6.91;100.00
1371;BME280;14306;49.942;11.570;2024-03-02T06:51:20;96336.63;;;6.87;100.00
1371;BME280;14306;49.942;11.570;2024-03-02T06:52:53;96343.28;;;6.89;100.00
1371;BME280;14306;49.942;11.570;2024-03-02T06:54:28;96351.50;;;6.84;100.00
1371;BME280;14306;49.942;11.570;2024-03-02T06:56:02;96344.00;;;7.03;100.00
1371;BME280;14306;49.942;11.570;2024-03-02T06:57:37;96319.50;;;6.83;100.00
1371;BME280;14306;49.942;11.570;2024-03-02T06:59:10;96312.09;;;6.88;100.00
1371;BME280;14306;49.942;11.570;2024-03-02T07:00:44;96321.00;;;6.97;100.00
1371;BME280;14306;49.942;11.570;2024-03-02T07:02:18;96346.88;;;7.07;100.00
1371;BME280;14306;49.942;11.570;2024-03-02T07:03:52;96350.00;;;7.22;100.00
1371;BME280;14306;49.942;11.570;2024-03-02T07:05:28;96366.00;;;7.27;100.00
1371;BME280;14306;49.942;11.570;2024-03-02T07:07:00;96356.16;;;7.23;100.00
1371;BME280;14306;49.942;11.570;2024-03-02T07:08:35;96357.94;;;7.05;100.00
1371;BME280;14306;49.942;11.570;2024-03-02T07:10:09;96362.13;;;7.11;100.00
1371;BME280;14306;49.942;11.570;2024-03-02T07:11:43;96364.50;;;7.13;100.00
1371;BME280;14306;49.942;11.570;2024-03-02T07:13:18;96353.97;;;7.03;100.00
1371;BME280;14306;49.942;11.570;2024-03-02T07:14:52;96361.44;;;7.06;100.00
1371;BME280;14306;49.942;11.570;2024-03-02T07:16:54;96364.66;;;7.16;100.00
1371;BME280;14306;49.942;11.570;2024-03-02T07:18:28;96367.31;;;7.08;100.00
1371;BME280;14306;49.942;11.570;2024-03-02T07:20:01;96351.09;;;7.21;100.00
1371;BME280;14306;49.942;11.570;2024-03-02T07:21:37;96370.47;;;7.32;100.00
1371;BME280;14306;49.942;11.570;2024-03-02T07:23:12;96371.75;;;7.34;100.00
1371;BME280;14306;49.942;11.570;2024-03-02T07:24:45;96369.78;;;7.48;100.00
1371;BME280;14306;49.942;11.570;2024-03-02T07:26:19;96381.47;;;7.44;100.00
1371;BME280;14306;49.942;11.570;2024-03-02T07:27:57;96380.56;;;7.57;100.00
1371;BME280;14306;49.942;11.570;2024-03-02T07:29:31;96381.59;;;7.69;100.00
1371;BME280;14306;49.942;11.570;2024-03-02T07:31:05;96382.69;;;7.68;100.00
1371;BME280;14306;49.942;11.570;2024-03-02T07:32:38;96384.13;;;7.66;100.00
1371;BME280;14306;49.942;11.570;2024-03-02T07:34:14;96395.56;;;7.80;100.00
1371;BME280;14306;49.942;11.570;2024-03-02T07:35:47;96396.31;;;7.63;100.00
1371;BME280;14306;49.942;11.570;2024-03-02T07:37:23;96407.31;;;7.75;100.00
1371;BME280;14306;49.942;11.570;2024-03-02T07:38:57;96405.47;;;7.62;100.00
1371;BME280;14306;49.942;11.570;2024-03-02T07:40:31;96406.72;;;7.87;100.00
1371;BME280;14306;49.942;11.570;2024-03-02T07:42:05;96407.41;;;8.01;100.00
1371;BME280;14306;49.942;11.570;2024-03-02T07:43:39;96412.75;;;8.23;100.00
1371;BME280;14306;49.942;11.570;2024-03-02T07:45:13;96418.03;;;8.06;100.00
1371;BME280;14306;49.942;11.570;2024-03-02T07:46:47;96422.66;;;8.05;100.00
1371;BME280;14306;49.942;11.570;2024-03-02T07:48:23;96423.63;;;8.09;100.00
1371;BME280;14306;49.942;11.570;2024-03-02T07:49:58;96427.94;;;8.19;100.00
1371;BME280;14306;49.942;11.570;2024-03-02T07:51:31;96431.78;;;8.27;100.00
1371;BME280;14306;49.942;11.570;2024-03-02T07:53:07;96439.13;;;8.04;100.00
1371;BME280;14306;49.942;11.570;2024-03-02T07:54:41;96437.59;;;8.20;100.00
1371;BME280;14306;49.942;11.570;2024-03-02T07:56:16;96438.69;;;8.10;100.00
1371;BME280;14306;49.942;11.570;2024-03-02T07:57:54;96452.22;;;8.19;100.00
1371;BME280;14306;49.942;11.570;2024-03-02T07:59:29;96457.59;;;8.19;100.00
1371;BME280;14306;49.942;11.570;2024-03-02T08:01:03;96457.31;;;8.29;100.00
1371;BME280;14306;49.942;11.570;2024-03-02T08:02:38;96457.94;;;8.26;100.00
1371;BME280;14306;49.942;11.570;2024-03-02T08:04:11;96468.28;;;8.24;100.00
1371;BME280;14306;49.942;11.570;2024-03-02T08:05:45;96455.22;;;8.18;100.00
1371;BME280;14306;49.942;11.570;2024-03-02T08:07:19;96461.84;;;8.11;100.00
1371;BME280;14306;49.942;11.570;2024-03-02T08:08:55;96468.69;;;8.18;100.00
1371;BME280;14306;49.942;11.570;2024-03-02T08:10:29;96479.72;;;8.30;100.00
1371;BME280;14306;49.942;11.570;2024-03-02T08:12:03;96476.94;;;8.52;100.00
1371;BME280;14306;49.942;11.570;2024-03-02T08:13:38;96476.97;;;8.69;100.00
1371;BME280;14306;49.942;11.570;2024-03-02T08:15:11;96481.09;;;8.66;100.00
1371;BME280;14306;49.942;11.570;2024-03-02T08:16:46;96489.22;;;8.83;100.00
1371;BME280;14306;49.942;11.570;2024-03-02T08:18:20;96486.50;;;8.83;100.00
1371;BME280;14306;49.942;11.570;2024-03-02T08:19:54;96492.41;;;8.94;100.00
1371;BME280;14306;49.942;11.570;2024-03-02T08:21:28;96499.88;;;8.97;100.00